Time;durP1;ratioP1;P1;durP2;ratioP2;P2;SDS_P1;SDS_P2;PMS_P1;PMS_P2;Temp;Humidity;BMP_temperature;BMP_pressure;BME280_temperature;BME280_humidity;BME280_pressure;Samples;Min_cycle;Max_cycle;Signal;HPM_P1;HPM_P2
2022/10/26 00:01:37;;;;;;;4.00;3.65;;;;;;;;;;5070481;28;20040;-64
2022/10/26 00:04:03;;;;;;;5.93;4.30;;;;;;;;;;5070794;28;20039;-64
2022/10/26 00:06:29;;;;;;;6.45;3.67;;;;;;;;;;5071753;28;20086;-64
2022/10/26 00:08:55;;;;;;;7.82;3.80;;;;;;;;;;5065198;28;20068;-64
2022/10/26 00:11:21;;;;;;;6.53;4.18;;;;;;;;;;5071739;28;20048;-64
2022/10/26 00:13:47;;;;;;;6.03;4.13;;;;;;;;;;5071052;28;20043;-64
2022/10/26 00:16:15;;;;;;;6.47;4.93;;;;;;;;;;5071613;28;20081;-64
2022/10/26 00:18:42;;;;;;;14.23;6.82;;;;;;;;;;5062146;28;20102;-64
2022/10/26 00:21:09;;;;;;;8.80;6.07;;;;;;;;;;5069978;28;20048;-64
2022/10/26 00:23:35;;;;;;;10.30;6.93;;;;;;;;;;5070928;28;20418;-64
2022/10/26 00:26:01;;;;;;;9.20;6.95;;;;;;;;;;5071726;28;20064;-64
2022/10/26 00:28:27;;;;;;;8.95;7.30;;;;;;;;;;5064541;28;20103;-64
2022/10/26 00:30:54;;;;;;;12.07;7.90;;;;;;;;;;5066579;28;20040;-64
2022/10/26 00:33:20;;;;;;;10.98;7.45;;;;;;;;;;5070498;28;20128;-64
2022/10/26 00:35:55;;;;;;;11.05;7.25;;;;;;;;;;5071360;28;20071;-64
2022/10/26 00:38:21;;;;;;;14.00;7.43;;;;;;;;;;5064326;28;20068;-64
2022/10/26 00:40:48;;;;;;;12.27;7.28;;;;;;;;;;5071586;28;20033;-64
2022/10/26 00:43:23;;;;;;;8.75;6.35;;;;;;;;;;5070752;28;20040;-64
2022/10/26 00:45:50;;;;;;;8.32;5.55;;;;;;;;;;5069966;28;20036;-64
2022/10/26 00:48:22;;;;;;;6.15;4.65;;;;;;;;;;5062044;28;20083;-64
2022/10/26 00:50:48;;;;;;;16.38;7.82;;;;;;;;;;5071112;28;20075;-64
2022/10/26 00:53:15;;;;;;;14.40;8.18;;;;;;;;;;5070159;28;20068;-64
2022/10/26 00:55:44;;;;;;;10.27;6.32;;;;;;;;;;5071545;28;20040;-64
2022/10/26 00:58:10;;;;;;;15.30;6.75;;;;;;;;;;5067866;28;20036;-64
2022/10/26 01:00:36;;;;;;;9.27;6.20;;;;;;;;;;5071332;28;20044;-64
2022/10/26 01:03:05;;;;;;;8.80;6.18;;;;;;;;;;5071161;28;20036;-64
2022/10/26 01:05:32;;;;;;;14.43;9.02;;;;;;;;;;5071361;28;20036;-64
2022/10/26 01:07:58;;;;;;;9.38;6.07;;;;;;;;;;5065701;28;20044;-64
2022/10/26 01:10:27;;;;;;;11.55;5.63;;;;;;;;;;5070003;28;20045;-64
2022/10/26 01:12:54;;;;;;;10.55;7.00;;;;;;;;;;5070960;28;20041;-64
2022/10/26 01:15:22;;;;;;;8.80;5.53;;;;;;;;;;5071434;28;20036;-64
2022/10/26 01:18:01;;;;;;;9.77;5.78;;;;;;;;;;5068341;28;20044;-64
2022/10/26 01:20:42;;;;;;;8.32;5.70;;;;;;;;;;5068568;28;20048;-64
2022/10/26 01:23:08;;;;;;;14.10;8.23;;;;;;;;;;5071031;28;20047;-64
2022/10/26 01:25:43;;;;;;;9.70;6.35;;;;;;;;;;5071248;28;20036;-64
2022/10/26 01:28:22;;;;;;;13.95;9.60;;;;;;;;;;5067122;28;20405;-64
2022/10/26 01:30:48;;;;;;;9.50;7.20;;;;;;;;;;5068737;28;20494;-64
2022/10/26 01:33:21;;;;;;;9.77;6.43;;;;;;;;;;5070976;28;20043;-64
2022/10/26 01:36:05;;;;;;;8.38;6.32;;;;;;;;;;5070986;28;20402;-64
2022/10/26 01:38:36;;;;;;;11.43;8.40;;;;;;;;;;5067421;28;20492;-64
2022/10/26 01:41:10;;;;;;;13.90;9.00;;;;;;;;;;5071254;28;20064;-63
2022/10/26 01:43:40;;;;;;;14.85;10.43;;;;;;;;;;5070199;28;20064;-64
2022/10/26 01:46:06;;;;;;;17.33;10.73;;;;;;;;;;5074817;28;20119;-64
2022/10/26 01:48:34;;;;;;;12.30;9.40;;;;;;;;;;5067764;28;20040;-63
2022/10/26 01:51:00;;;;;;;14.68;9.38;;;;;;;;;;5072961;28;20115;-64
2022/10/26 01:53:27;;;;;;;17.60;10.82;;;;;;;;;;5074713;28;20052;-63
2022/10/26 01:55:54;;;;;;;14.90;10.25;;;;;;;;;;5073421;28;20086;-64
2022/10/26 01:58:39;;;;;;;11.73;7.95;;;;;;;;;;5064796;28;20080;-63
2022/10/26 02:01:11;;;;;;;15.52;9.82;;;;;;;;;;5071021;28;20049;-64
2022/10/26 02:03:43;;;;;;;14.65;9.82;;;;;;;;;;5072244;28;20030;-63
2022/10/26 02:06:16;;;;;;;18.33;10.50;;;;;;;;;;5074067;28;20040;-64
2022/10/26 02:08:54;;;;;;;19.02;12.20;;;;;;;;;;5069002;28;20045;-64
2022/10/26 02:11:20;;;;;;;18.23;11.38;;;;;;;;;;5073446;28;20128;-64
2022/10/26 02:14:05;;;;;;;21.02;12.38;;;;;;;;;;5072709;28;20131;-64
2022/10/26 02:16:37;;;;;;;17.98;12.23;;;;;;;;;;5074114;28;20040;-64
2022/10/26 02:19:03;;;;;;;21.83;12.35;;;;;;;;;;5067616;28;20048;-64
2022/10/26 02:21:35;;;;;;;16.80;12.25;;;;;;;;;;5074190;28;20162;-64
2022/10/26 02:24:02;;;;;;;21.73;12.50;;;;;;;;;;5072929;28;20116;-64
2022/10/26 02:26:29;;;;;;;21.80;13.25;;;;;;;;;;5073592;28;20036;-64
2022/10/26 02:28:57;;;;;;;18.50;12.40;;;;;;;;;;5064688;28;20041;-64
2022/10/26 02:31:24;;;;;;;17.83;12.27;;;;;;;;;;5072724;28;20037;-64
2022/10/26 02:33:51;;;;;;;19.55;11.57;;;;;;;;;;5072039;28;20048;-64
2022/10/26 02:36:23;;;;;;;18.98;12.85;;;;;;;;;;5073851;28;20041;-64
2022/10/26 02:38:49;;;;;;;21.25;13.35;;;;;;;;;;5072259;28;20037;-65
2022/10/26 02:41:15;;;;;;;20.63;12.93;;;;;;;;;;5073757;28;20051;-64
2022/10/26 02:43:43;;;;;;;21.95;13.70;;;;;;;;;;5073338;28;20072;-64
2022/10/26 02:46:12;;;;;;;24.58;13.18;;;;;;;;;;5074009;28;20037;-64
2022/10/26 02:48:38;;;;;;;21.08;13.63;;;;;;;;;;5070974;28;20521;-64
2022/10/26 02:51:10;;;;;;;18.50;12.60;;;;;;;;;;5071428;28;20076;-64
2022/10/26 02:53:51;;;;;;;20.45;14.18;;;;;;;;;;5071898;28;20048;-64
2022/10/26 02:56:29;;;;;;;23.80;13.30;;;;;;;;;;5072140;28;20087;-64
2022/10/26 02:58:57;;;;;;;23.80;14.65;;;;;;;;;;5066719;28;20486;-64
2022/10/26 03:01:23;;;;;;;21.75;14.57;;;;;;;;;;5070202;28;20064;-64
2022/10/26 03:03:49;;;;;;;21.77;13.60;;;;;;;;;;5067193;28;20033;-64
2022/10/26 03:06:22;;;;;;;21.40;13.02;;;;;;;;;;5071709;28;20040;-64
2022/10/26 03:08:49;;;;;;;25.17;13.35;;;;;;;;;;5064091;28;20052;-64
2022/10/26 03:11:15;;;;;;;22.90;13.82;;;;;;;;;;5069935;28;20105;-64
2022/10/26 03:13:41;;;;;;;22.17;13.82;;;;;;;;;;5073372;28;20071;-64
2022/10/26 03:16:07;;;;;;;21.63;13.65;;;;;;;;;;5072761;28;20043;-65
2022/10/26 03:18:33;;;;;;;24.40;14.48;;;;;;;;;;5067413;28;20041;-64
2022/10/26 03:20:59;;;;;;;23.05;14.15;;;;;;;;;;5069142;28;20367;-64
2022/10/26 03:23:25;;;;;;;22.02;13.68;;;;;;;;;;5072761;28;20124;-64
2022/10/26 03:25:51;;;;;;;25.73;14.40;;;;;;;;;;5071363;28;20136;-64
2022/10/26 03:28:17;;;;;;;23.63;13.27;;;;;;;;;;5070251;28;20044;-64
2022/10/26 03:30:43;;;;;;;23.95;14.48;;;;;;;;;;5065977;28;20502;-65
2022/10/26 03:33:09;;;;;;;22.33;13.90;;;;;;;;;;5070982;28;20079;-64
2022/10/26 03:35:35;;;;;;;19.95;12.70;;;;;;;;;;5072861;28;20091;-64
2022/10/26 03:38:01;;;;;;;23.52;13.65;;;;;;;;;;5070176;28;20093;-64
2022/10/26 03:40:26;;;;;;;25.95;14.98;;;;;;;;;;5071750;28;20085;-64
2022/10/26 03:42:52;;;;;;;22.65;13.98;;;;;;;;;;5071971;28;20036;-64
2022/10/26 03:45:18;;;;;;;23.30;14.15;;;;;;;;;;5072479;28;20129;-64
2022/10/26 03:47:49;;;;;;;21.52;13.63;;;;;;;;;;5069268;28;20038;-64
2022/10/26 03:50:16;;;;;;;26.48;13.98;;;;;;;;;;5070067;28;20502;-64
2022/10/26 03:52:42;;;;;;;24.58;14.32;;;;;;;;;;5070054;28;20046;-64
2022/10/26 03:55:09;;;;;;;19.17;13.30;;;;;;;;;;5072234;28;20046;-64
2022/10/26 03:57:39;;;;;;;23.17;13.85;;;;;;;;;;5062680;28;20032;-64
2022/10/26 04:00:05;;;;;;;20.73;13.33;;;;;;;;;;5070914;28;20044;-64
2022/10/26 04:02:31;;;;;;;20.25;13.40;;;;;;;;;;5071006;28;20295;-64
2022/10/26 04:04:57;;;;;;;25.00;14.50;;;;;;;;;;5079412;28;20032;-64
2022/10/26 04:07:23;;;;;;;19.23;12.82;;;;;;;;;;5070017;28;20093;-64
2022/10/26 04:09:49;;;;;;;21.90;13.52;;;;;;;;;;5065090;28;20086;-64
2022/10/26 04:12:15;;;;;;;22.10;14.38;;;;;;;;;;5072006;28;20040;-64
2022/10/26 04:14:41;;;;;;;24.35;14.60;;;;;;;;;;5071363;28;20068;-64
2022/10/26 04:17:07;;;;;;;23.92;14.20;;;;;;;;;;5062086;28;20576;-64
2022/10/26 04:19:33;;;;;;;25.17;14.98;;;;;;;;;;5071663;28;20040;-64
2022/10/26 04:21:59;;;;;;;23.35;15.38;;;;;;;;;;5072133;28;20044;-64
2022/10/26 04:24:25;;;;;;;25.58;14.55;;;;;;;;;;5070572;28;20064;-64
2022/10/26 04:26:51;;;;;;;26.88;14.77;;;;;;;;;;5065136;28;20094;-64
2022/10/26 04:29:17;;;;;;;24.55;15.45;;;;;;;;;;5064047;28;20033;-64
2022/10/26 04:31:43;;;;;;;25.75;15.55;;;;;;;;;;5069267;28;20089;-65
2022/10/26 04:34:09;;;;;;;26.15;14.93;;;;;;;;;;5071364;28;20547;-65
2022/10/26 04:36:35;;;;;;;25.90;14.88;;;;;;;;;;5070594;28;20032;-65
2022/10/26 04:39:01;;;;;;;24.55;14.77;;;;;;;;;;5068690;28;20043;-65
2022/10/26 04:41:27;;;;;;;25.42;14.73;;;;;;;;;;5071625;28;20044;-65
2022/10/26 04:43:53;;;;;;;21.60;14.40;;;;;;;;;;5069234;28;20047;-65
2022/10/26 04:46:19;;;;;;;22.48;14.13;;;;;;;;;;5071527;28;20036;-65
2022/10/26 04:48:47;;;;;;;26.23;14.75;;;;;;;;;;5066177;28;20041;-65
2022/10/26 04:51:13;;;;;;;24.23;13.95;;;;;;;;;;5068151;28;20511;-65
2022/10/26 04:53:39;;;;;;;23.40;15.00;;;;;;;;;;5064406;28;20436;-65
2022/10/26 04:56:05;;;;;;;28.10;15.02;;;;;;;;;;5069712;28;20044;-65
2022/10/26 04:58:31;;;;;;;24.73;13.98;;;;;;;;;;5068167;28;20044;-65
2022/10/26 05:00:57;;;;;;;24.17;14.05;;;;;;;;;;5070360;28;20036;-65
2022/10/26 05:03:23;;;;;;;19.35;12.82;;;;;;;;;;5069453;28;20072;-65
2022/10/26 05:05:49;;;;;;;23.90;13.15;;;;;;;;;;5070582;28;20115;-65
2022/10/26 05:08:16;;;;;;;22.38;13.45;;;;;;;;;;5067635;28;20186;-65
2022/10/26 05:10:42;;;;;;;24.35;13.70;;;;;;;;;;5063062;28;20045;-65
2022/10/26 05:13:08;;;;;;;25.70;12.52;;;;;;;;;;5070893;28;20123;-65
2022/10/26 05:15:34;;;;;;;20.40;13.18;;;;;;;;;;5069237;28;20040;-66
2022/10/26 05:18:05;;;;;;;19.55;12.27;;;;;;;;;;5073846;28;20036;-65
2022/10/26 05:20:31;;;;;;;21.93;13.03;;;;;;;;;;5071738;28;20119;-66
2022/10/26 05:22:59;;;;;;;20.70;12.23;;;;;;;;;;5075429;28;20578;-65
2022/10/26 05:25:26;;;;;;;21.48;13.18;;;;;;;;;;5073677;28;20064;-65
2022/10/26 05:27:52;;;;;;;23.83;13.48;;;;;;;;;;5073877;28;20481;-65
2022/10/26 05:30:18;;;;;;;23.10;13.65;;;;;;;;;;5064936;28;20041;-65
2022/10/26 05:32:44;;;;;;;20.42;12.80;;;;;;;;;;5074526;28;20040;-65
2022/10/26 05:35:10;;;;;;;22.20;12.63;;;;;;;;;;5075220;28;20554;-65
2022/10/26 05:37:36;;;;;;;21.13;12.82;;;;;;;;;;5073294;28;20040;-66
2022/10/26 05:40:02;;;;;;;21.20;12.57;;;;;;;;;;5071946;28;20088;-65
2022/10/26 05:42:28;;;;;;;20.95;12.80;;;;;;;;;;5074002;28;20253;-65
2022/10/26 05:44:54;;;;;;;19.27;12.68;;;;;;;;;;5075210;28;20441;-65
2022/10/26 05:47:20;;;;;;;19.38;12.55;;;;;;;;;;5073249;28;20047;-65
2022/10/26 05:49:47;;;;;;;22.95;12.45;;;;;;;;;;5067711;28;20037;-65
2022/10/26 05:52:13;;;;;;;23.60;12.07;;;;;;;;;;5071388;28;20052;-65
2022/10/26 05:54:39;;;;;;;21.08;11.57;;;;;;;;;;5074315;28;20406;-65
2022/10/26 05:57:05;;;;;;;22.80;12.48;;;;;;;;;;5072920;28;20044;-65
2022/10/26 05:59:31;;;;;;;22.33;11.82;;;;;;;;;;5068011;28;20036;-65
2022/10/26 06:02:05;;;;;;;19.63;12.30;;;;;;;;;;5068869;28;20064;-65
2022/10/26 06:04:37;;;;;;;24.30;13.07;;;;;;;;;;5074791;28;20371;-65
2022/10/26 06:07:04;;;;;;;25.63;12.90;;;;;;;;;;5065861;28;20509;-65
2022/10/26 06:09:30;;;;;;;20.30;12.55;;;;;;;;;;5073133;28;20493;-65
2022/10/26 06:11:56;;;;;;;27.35;12.52;;;;;;;;;;5074279;28;20142;-65
2022/10/26 06:14:22;;;;;;;21.30;12.30;;;;;;;;;;5074672;28;20043;-65
2022/10/26 06:17:03;;;;;;;22.45;12.50;;;;;;;;;;5072240;28;20040;-65
2022/10/26 06:19:41;;;;;;;19.40;12.32;;;;;;;;;;5072438;28;20214;-65
2022/10/26 06:22:25;;;;;;;19.80;11.68;;;;;;;;;;5073888;28;20044;-65
2022/10/26 06:24:51;;;;;;;17.38;11.57;;;;;;;;;;5074425;28;20040;-65
2022/10/26 06:27:28;;;;;;;20.55;11.18;;;;;;;;;;5070242;28;20501;-65
2022/10/26 06:30:06;;;;;;;17.23;11.10;;;;;;;;;;5073172;28;20086;-65
2022/10/26 06:32:32;;;;;;;16.20;10.25;;;;;;;;;;5074121;28;20041;-65
2022/10/26 06:35:10;;;;;;;16.50;10.35;;;;;;;;;;5069152;28;20116;-65
2022/10/26 06:37:37;;;;;;;19.60;10.65;;;;;;;;;;5073678;28;20055;-65
2022/10/26 06:40:04;;;;;;;16.38;10.65;;;;;;;;;;5072023;28;20070;-65
2022/10/26 06:42:31;;;;;;;19.38;11.13;;;;;;;;;;5072107;28;20037;-65
2022/10/26 06:44:57;;;;;;;20.40;11.23;;;;;;;;;;5071974;28;20036;-65
2022/10/26 06:47:42;;;;;;;17.58;11.07;;;;;;;;;;5070877;28;20076;-65
2022/10/26 06:50:26;;;;;;;17.88;11.30;;;;;;;;;;5072046;28;20401;-65
2022/10/26 06:53:10;;;;;;;17.23;10.75;;;;;;;;;;5071895;28;20045;-65
2022/10/26 06:55:44;;;;;;;18.38;10.75;;;;;;;;;;5070935;28;20048;-65
2022/10/26 06:58:17;;;;;;;14.48;9.88;;;;;;;;;;5072237;28;20041;-65
2022/10/26 07:00:44;;;;;;;21.33;10.60;;;;;;;;;;5065975;28;20079;-65
2022/10/26 07:03:10;;;;;;;19.38;9.75;;;;;;;;;;5070474;28;20486;-65
2022/10/26 07:05:36;;;;;;;12.73;8.75;;;;;;;;;;5073364;28;20182;-65
2022/10/26 07:08:02;;;;;;;15.00;9.25;;;;;;;;;;5071344;28;20486;-65
2022/10/26 07:10:28;;;;;;;14.07;9.10;;;;;;;;;;5071856;28;20115;-65
2022/10/26 07:13:17;;;;;;;13.98;9.05;;;;;;;;;;5071529;28;20045;-65
2022/10/26 07:15:44;;;;;;;21.02;9.68;;;;;;;;;;5062492;28;20041;-65
2022/10/26 07:18:10;;;;;;;16.52;9.07;;;;;;;;;;5069862;28;20452;-66
2022/10/26 07:20:37;;;;;;;17.85;9.13;;;;;;;;;;5070619;28;20506;-65
2022/10/26 07:23:05;;;;;;;13.52;9.52;;;;;;;;;;5073067;28;20045;-65
2022/10/26 07:25:32;;;;;;;19.00;9.73;;;;;;;;;;5071618;28;20040;-65
2022/10/26 07:27:58;;;;;;;19.02;9.70;;;;;;;;;;5071504;28;20181;-65
2022/10/26 07:30:25;;;;;;;18.08;9.50;;;;;;;;;;5072654;28;20044;-65
2022/10/26 07:32:57;;;;;;;19.88;9.85;;;;;;;;;;5071303;28;20037;-65
2022/10/26 07:35:23;;;;;;;14.52;8.70;;;;;;;;;;5072809;28;20033;-65
2022/10/26 07:37:49;;;;;;;14.20;9.93;;;;;;;;;;5071774;28;20040;-65
2022/10/26 07:40:15;;;;;;;14.40;8.75;;;;;;;;;;5070884;28;20384;-65
2022/10/26 07:42:41;;;;;;;14.88;8.90;;;;;;;;;;5071962;28;20059;-65
2022/10/26 07:45:08;;;;;;;12.07;8.20;;;;;;;;;;5067580;28;20505;-66
2022/10/26 07:47:33;;;;;;;14.02;7.80;;;;;;;;;;5072190;28;20072;-65
2022/10/26 07:49:59;;;;;;;10.75;7.85;;;;;;;;;;5072095;28;20076;-65
2022/10/26 07:52:26;;;;;;;14.45;8.40;;;;;;;;;;5071218;28;20556;-65
2022/10/26 07:54:51;;;;;;;14.52;8.32;;;;;;;;;;5070057;28;20077;-66
2022/10/26 07:57:17;;;;;;;14.30;7.72;;;;;;;;;;5072194;28;20127;-66
2022/10/26 07:59:43;;;;;;;16.23;8.15;;;;;;;;;;5069398;28;20032;-65
2022/10/26 08:02:10;;;;;;;13.07;7.43;;;;;;;;;;5068419;28;20442;-66
2022/10/26 08:04:36;;;;;;;12.38;7.93;;;;;;;;;;5070432;28;20032;-66
2022/10/26 08:07:02;;;;;;;12.85;7.93;;;;;;;;;;5069020;28;20040;-66
2022/10/26 08:09:28;;;;;;;12.07;7.28;;;;;;;;;;5069230;28;20040;-66
2022/10/26 08:11:54;;;;;;;11.55;7.22;;;;;;;;;;5072007;28;20043;-65
2022/10/26 08:14:20;;;;;;;12.57;7.18;;;;;;;;;;5071083;28;20033;-65
2022/10/26 08:16:46;;;;;;;10.05;7.43;;;;;;;;;;5069934;28;20040;-66
2022/10/26 08:19:13;;;;;;;14.18;8.00;;;;;;;;;;5069751;28;20044;-66
2022/10/26 08:21:39;;;;;;;12.82;7.80;;;;;;;;;;5072124;28;20028;-66
2022/10/26 08:24:05;;;;;;;8.75;7.40;;;;;;;;;;5070520;28;20116;-66
2022/10/26 08:26:31;;;;;;;12.70;7.25;;;;;;;;;;5062051;28;20074;-66
2022/10/26 08:28:57;;;;;;;10.45;6.60;;;;;;;;;;5074696;28;20032;-66
2022/10/26 08:31:23;;;;;;;9.30;6.75;;;;;;;;;;5071832;28;20490;-66
2022/10/26 08:33:49;;;;;;;10.38;7.13;;;;;;;;;;5070681;28;20044;-66
2022/10/26 08:36:18;;;;;;;8.50;6.38;;;;;;;;;;5069171;28;20063;-66
2022/10/26 08:38:46;;;;;;;11.05;6.65;;;;;;;;;;5071027;28;20040;-66
2022/10/26 08:41:13;;;;;;;12.13;6.95;;;;;;;;;;5069231;28;20555;-67
2022/10/26 08:43:42;;;;;;;12.57;6.70;;;;;;;;;;5069130;28;20490;-64
2022/10/26 08:46:11;;;;;;;13.85;7.03;;;;;;;;;;5070620;28;20044;-63
2022/10/26 08:48:42;;;;;;;12.07;7.50;;;;;;;;;;5071304;28;20036;-63
2022/10/26 08:51:13;;;;;;;11.68;7.32;;;;;;;;;;5069241;28;20041;-64
2022/10/26 08:53:41;;;;;;;13.98;7.57;;;;;;;;;;5063953;28;20486;-63
2022/10/26 08:56:26;;;;;;;10.13;6.72;;;;;;;;;;5070141;28;20055;-63
2022/10/26 08:59:02;;;;;;;14.00;7.15;;;;;;;;;;5069899;28;20134;-64
2022/10/26 09:01:30;;;;;;;10.32;6.55;;;;;;;;;;5070869;28;20032;-64
2022/10/26 09:03:57;;;;;;;11.77;6.53;;;;;;;;;;5071318;28;20051;-64
2022/10/26 09:06:30;;;;;;;13.55;7.50;;;;;;;;;;5069780;28;20041;-64
2022/10/26 09:09:08;;;;;;;12.05;6.57;;;;;;;;;;5066067;28;20094;-65
2022/10/26 09:11:37;;;;;;;10.40;6.85;;;;;;;;;;5070483;28;20398;-64
2022/10/26 09:14:12;;;;;;;13.80;6.57;;;;;;;;;;5070980;28;20036;-64
2022/10/26 09:16:57;;;;;;;8.85;6.50;;;;;;;;;;5070559;28;20036;-66
2022/10/26 09:19:41;;;;;;;10.98;7.18;;;;;;;;;;5069632;28;20045;-65
2022/10/26 09:22:26;;;;;;;8.88;6.80;;;;;;;;;;5067942;28;20082;-65
2022/10/26 09:24:56;;;;;;;12.02;6.55;;;;;;;;;;5071188;28;20119;-65
2022/10/26 09:27:29;;;;;;;11.45;6.10;;;;;;;;;;5071120;28;20083;-65
2022/10/26 09:29:59;;;;;;;10.73;6.00;;;;;;;;;;5067640;28;20116;-65
2022/10/26 09:32:34;;;;;;;10.10;6.15;;;;;;;;;;5071010;28;20124;-66
2022/10/26 09:35:03;;;;;;;8.68;5.22;;;;;;;;;;5070117;28;20040;-65
2022/10/26 09:37:31;;;;;;;10.18;5.40;;;;;;;;;;5071085;28;20044;-65
2022/10/26 09:40:10;;;;;;;10.07;5.40;;;;;;;;;;5063227;28;20029;-65
2022/10/26 09:42:41;;;;;;;7.50;5.20;;;;;;;;;;5062690;28;20047;-65
2022/10/26 09:45:20;;;;;;;8.45;5.50;;;;;;;;;;5069975;28;20036;-65
2022/10/26 09:47:50;;;;;;;9.85;5.47;;;;;;;;;;5070482;28;20087;-65
2022/10/26 09:50:16;;;;;;;9.02;5.40;;;;;;;;;;5064171;28;20044;-66
2022/10/26 09:52:43;;;;;;;7.20;4.63;;;;;;;;;;5069198;28;20055;-65
2022/10/26 09:55:13;;;;;;;10.30;5.20;;;;;;;;;;5069581;28;20052;-65
2022/10/26 09:57:45;;;;;;;11.02;4.70;;;;;;;;;;5068726;28;20044;-65
2022/10/26 10:00:12;;;;;;;10.05;4.50;;;;;;;;;;5068057;28;20497;-65
2022/10/26 10:02:42;;;;;;;6.30;4.93;;;;;;;;;;5069015;28;20044;-65
2022/10/26 10:05:27;;;;;;;7.55;4.55;;;;;;;;;;5064772;28;20045;-65
2022/10/26 10:08:19;;;;;;;8.10;4.38;;;;;;;;;;5066392;28;20032;-65
2022/10/26 10:11:05;;;;;;;10.40;4.13;;;;;;;;;;5056475;28;20167;-65
2022/10/26 10:13:36;;;;;;;7.07;4.05;;;;;;;;;;5065573;28;20132;-65
2022/10/26 10:16:05;;;;;;;5.25;3.50;;;;;;;;;;5066350;28;20371;-67
2022/10/26 10:18:31;;;;;;;5.63;3.25;;;;;;;;;;5071008;28;20044;-67
2022/10/26 10:20:58;;;;;;;7.60;3.30;;;;;;;;;;5065827;28;20036;-66
2022/10/26 10:23:34;;;;;;;7.70;3.70;;;;;;;;;;5070021;28;20124;-66
2022/10/26 10:26:01;;;;;;;4.18;2.78;;;;;;;;;;5071962;28;20498;-66
2022/10/26 10:28:28;;;;;;;5.07;3.00;;;;;;;;;;5065194;28;20044;-65
2022/10/26 10:30:58;;;;;;;6.72;3.10;;;;;;;;;;5070648;28;20377;-65
2022/10/26 10:33:36;;;;;;;5.40;3.03;;;;;;;;;;5063195;28;20406;-65
2022/10/26 10:36:04;;;;;;;6.00;2.80;;;;;;;;;;5073699;28;20123;-65
2022/10/26 10:38:36;;;;;;;6.28;2.85;;;;;;;;;;5070924;28;20052;-65
2022/10/26 10:41:03;;;;;;;7.57;3.22;;;;;;;;;;5074030;28;20085;-65
2022/10/26 10:43:29;;;;;;;5.97;3.05;;;;;;;;;;5074063;28;20070;-65
2022/10/26 10:45:57;;;;;;;7.65;2.70;;;;;;;;;;5071367;28;20137;-65
2022/10/26 10:48:25;;;;;;;6.70;3.03;;;;;;;;;;5070570;28;20041;-65
2022/10/26 10:50:52;;;;;;;6.72;3.63;;;;;;;;;;5073171;28;20033;-65
2022/10/26 10:53:24;;;;;;;5.13;3.05;;;;;;;;;;5073119;28;20052;-65
2022/10/26 10:56:10;;;;;;;6.25;2.92;;;;;;;;;;5069832;28;20640;-65
2022/10/26 10:58:48;;;;;;;8.68;3.58;;;;;;;;;;5053173;28;20405;-65
2022/10/26 11:01:17;;;;;;;6.32;3.22;;;;;;;;;;5073323;28;20044;-65
2022/10/26 11:03:43;;;;;;;7.82;3.00;;;;;;;;;;5071926;28;20047;-65
2022/10/26 11:06:13;;;;;;;8.02;3.50;;;;;;;;;;5073504;28;20040;-65
2022/10/26 11:08:56;;;;;;;9.52;3.42;;;;;;;;;;5072192;28;20033;-65
2022/10/26 11:11:27;;;;;;;7.18;3.03;;;;;;;;;;5071068;28;20048;-65
2022/10/26 11:13:56;;;;;;;6.47;3.28;;;;;;;;;;5072729;28;20033;-66
2022/10/26 11:16:30;;;;;;;9.98;3.35;;;;;;;;;;5073701;28;20041;-65
2022/10/26 11:19:14;;;;;;;6.03;3.45;;;;;;;;;;5069083;28;20037;-66
2022/10/26 11:21:42;;;;;;;8.40;3.25;;;;;;;;;;5064964;28;20066;-65
2022/10/26 11:24:12;;;;;;;9.63;3.33;;;;;;;;;;5073026;28;20033;-66
2022/10/26 11:26:40;;;;;;;8.63;3.15;;;;;;;;;;5072464;28;20033;-66
2022/10/26 11:29:22;;;;;;;5.60;3.00;;;;;;;;;;5064225;28;20049;-65
2022/10/26 11:31:53;;;;;;;7.93;3.22;;;;;;;;;;5067142;28;20033;-65
2022/10/26 11:34:31;;;;;;;6.10;3.35;;;;;;;;;;5071663;28;20383;-66
2022/10/26 11:37:17;;;;;;;9.02;3.38;;;;;;;;;;5072440;28;20540;-66
2022/10/26 11:39:53;;;;;;;7.30;3.30;;;;;;;;;;5062573;28;20063;-66
2022/10/26 11:42:25;;;;;;;6.63;3.00;;;;;;;;;;5070618;28;20032;-65
2022/10/26 11:45:01;;;;;;;6.18;3.95;;;;;;;;;;5069915;28;20059;-65
2022/10/26 11:47:35;;;;;;;7.05;3.38;;;;;;;;;;5071523;28;20047;-66
2022/10/26 11:50:19;;;;;;;7.03;3.22;;;;;;;;;;5072428;28;20063;-65
2022/10/26 11:53:08;;;;;;;8.30;3.50;;;;;;;;;;5067178;28;20039;-65
2022/10/26 11:55:35;;;;;;;6.55;3.40;;;;;;;;;;5058942;28;20400;-65
2022/10/26 11:58:01;;;;;;;7.75;3.95;;;;;;;;;;5072044;28;20044;-66
2022/10/26 12:00:29;;;;;;;7.60;3.10;;;;;;;;;;5071748;28;20049;-66
2022/10/26 12:02:57;;;;;;;9.20;3.75;;;;;;;;;;5070990;28;20494;-64
2022/10/26 12:05:34;;;;;;;5.90;3.47;;;;;;;;;;5064243;28;20048;-65
2022/10/26 12:08:05;;;;;;;8.43;3.30;;;;;;;;;;5069279;28;20043;-65
2022/10/26 12:10:37;;;;;;;7.80;3.67;;;;;;;;;;5069923;28;20051;-66
2022/10/26 12:13:22;;;;;;;8.43;3.47;;;;;;;;;;5070805;28;20083;-65
2022/10/26 12:16:06;;;;;;;7.43;3.42;;;;;;;;;;5070530;28;20044;-66
2022/10/26 12:18:35;;;;;;;6.30;3.85;;;;;;;;;;5068405;28;20044;-65
2022/10/26 12:21:02;;;;;;;7.35;3.80;;;;;;;;;;5071689;28;20044;-65
2022/10/26 12:23:29;;;;;;;9.32;3.70;;;;;;;;;;5071023;28;20128;-66
2022/10/26 12:26:34;;;;;;;12.13;3.78;;;;;;;;;;5068838;28;20037;-65
2022/10/26 12:29:02;;;;;;;6.38;3.40;;;;;;;;;;5065556;28;20094;-65
2022/10/26 12:31:28;;;;;;;8.60;3.13;;;;;;;;;;5070367;28;20037;-65
2022/10/26 12:33:54;;;;;;;10.07;3.60;;;;;;;;;;5070192;28;20082;-66
2022/10/26 12:36:39;;;;;;;8.50;3.53;;;;;;;;;;5071271;28;20490;-65
2022/10/26 12:39:25;;;;;;;8.00;3.30;;;;;;;;;;5068620;28;20105;-65
2022/10/26 12:42:09;;;;;;;10.02;3.88;;;;;;;;;;5060274;28;20489;-66
2022/10/26 12:44:45;;;;;;;7.75;3.80;;;;;;;;;;5070521;28;20045;-65
2022/10/26 12:47:29;;;;;;;6.80;3.20;;;;;;;;;;5070567;28;20033;-66
2022/10/26 12:49:59;;;;;;;6.13;2.75;;;;;;;;;;5060615;28;20495;-65
2022/10/26 12:52:30;;;;;;;7.47;2.75;;;;;;;;;;5070850;28;20126;-65
2022/10/26 12:55:07;;;;;;;7.00;3.15;;;;;;;;;;5071995;28;20059;-65
2022/10/26 12:57:38;;;;;;;5.57;3.28;;;;;;;;;;5070571;28;20036;-65
2022/10/26 13:00:05;;;;;;;9.55;3.25;;;;;;;;;;5068289;28;20115;-65
2022/10/26 13:02:44;;;;;;;5.03;2.83;;;;;;;;;;5070056;28;20035;-65
2022/10/26 13:05:19;;;;;;;7.63;3.30;;;;;;;;;;5070649;28;20043;-65
2022/10/26 13:07:45;;;;;;;8.68;4.10;;;;;;;;;;5069680;28;20033;-66
2022/10/26 13:10:11;;;;;;;7.20;3.85;;;;;;;;;;5068651;28;20044;-65
2022/10/26 13:12:57;;;;;;;8.10;3.42;;;;;;;;;;5071157;28;20040;-66
2022/10/26 13:15:28;;;;;;;8.18;3.85;;;;;;;;;;5069714;28;20052;-65
2022/10/26 13:18:06;;;;;;;7.57;3.50;;;;;;;;;;5070002;28;20045;-65
2022/10/26 13:20:33;;;;;;;7.55;3.65;;;;;;;;;;5067440;28;20513;-65
2022/10/26 13:22:59;;;;;;;8.38;3.10;;;;;;;;;;5068788;28;20029;-65
2022/10/26 13:25:29;;;;;;;9.02;3.28;;;;;;;;;;5078857;28;20067;-65
2022/10/26 13:28:14;;;;;;;8.48;3.42;;;;;;;;;;5070339;28;20394;-66
2022/10/26 13:30:44;;;;;;;8.27;3.65;;;;;;;;;;5064774;28;20565;-65
2022/10/26 13:33:17;;;;;;;6.50;3.15;;;;;;;;;;5067877;28;20075;-66
2022/10/26 13:35:44;;;;;;;6.88;3.05;;;;;;;;;;5059837;28;20452;-65
2022/10/26 13:38:11;;;;;;;6.75;3.45;;;;;;;;;;5060364;28;20041;-66
2022/10/26 13:40:38;;;;;;;8.52;3.80;;;;;;;;;;5065806;28;20370;-65
2022/10/26 13:43:05;;;;;;;6.50;3.50;;;;;;;;;;5070613;28;20064;-66
2022/10/26 13:45:36;;;;;;;8.95;3.78;;;;;;;;;;5071759;28;20032;-66
2022/10/26 13:48:02;;;;;;;;;;;;;;;;;;5074510;28;20405;-66
2022/10/26 13:50:31;;;;;;;8.18;4.13;;;;;;;;;;5075457;28;19920;-65
2022/10/26 13:53:00;;;;;;;8.02;3.80;;;;;;;;;;5071954;28;20074;-65
2022/10/26 13:55:30;;;;;;;7.85;4.00;;;;;;;;;;5059013;28;20055;-66
2022/10/26 13:58:15;;;;;;;7.07;3.95;;;;;;;;;;5059309;28;20052;-65
2022/10/26 14:00:59;;;;;;;6.30;3.58;;;;;;;;;;5064157;28;20045;-65
2022/10/26 14:03:26;;;;;;;7.25;3.50;;;;;;;;;;5070434;28;20048;-65
2022/10/26 14:05:52;;;;;;;7.95;3.72;;;;;;;;;;5073522;28;20032;-65
2022/10/26 14:08:19;;;;;;;5.32;3.38;;;;;;;;;;5063047;28;20407;-65
2022/10/26 14:10:46;;;;;;;8.85;3.70;;;;;;;;;;5060346;28;20036;-65
2022/10/26 14:13:17;;;;;;;11.23;3.92;;;;;;;;;;5066089;28;20048;-65
2022/10/26 14:15:44;;;;;;;9.80;4.30;;;;;;;;;;5072323;28;20037;-65
2022/10/26 14:18:18;;;;;;;9.13;4.00;;;;;;;;;;5066551;28;20047;-65
2022/10/26 14:20:47;;;;;;;7.85;3.90;;;;;;;;;;5068966;28;20437;-65
2022/10/26 14:23:33;;;;;;;11.45;4.43;;;;;;;;;;5068841;28;20079;-65
2022/10/26 14:25:59;;;;;;;9.52;4.70;;;;;;;;;;5070292;28;20040;-65
2022/10/26 14:28:27;;;;;;;10.55;4.70;;;;;;;;;;5070581;28;20044;-65
2022/10/26 14:30:53;;;;;;;9.75;4.30;;;;;;;;;;5063229;28;20043;-65
2022/10/26 14:33:20;;;;;;;9.63;3.92;;;;;;;;;;5082283;28;20040;-65
2022/10/26 14:35:47;;;;;;;6.55;3.97;;;;;;;;;;5076407;28;20048;-65
2022/10/26 14:38:19;;;;;;;8.40;4.20;;;;;;;;;;5073199;28;20076;-65
2022/10/26 14:40:45;;;;;;;5.88;4.18;;;;;;;;;;5068752;28;20512;-66
2022/10/26 14:43:16;;;;;;;9.27;4.22;;;;;;;;;;5070041;28;20052;-65
2022/10/26 14:45:46;;;;;;;7.50;3.95;;;;;;;;;;5072116;28;20043;-65
2022/10/26 14:48:18;;;;;;;9.27;3.67;;;;;;;;;;5066175;28;20036;-65